sensor_id;sensor_type;location;lat;lon;timestamp;temperature;humidity
3736;DHT22;1883;48.202;16.310;2023-03-14T02:38:26;8.00;67.40
3736;DHT22;1883;48.202;16.310;2023-03-14T02:40:56;8.00;67.40
3736;DHT22;1883;48.202;16.310;2023-03-14T02:43:23;8.00;67.40
3736;DHT22;1883;48.202;16.310;2023-03-14T02:45:51;8.00;67.40
3736;DHT22;1883;48.202;16.310;2023-03-14T02:48:21;8.00;67.50
3736;DHT22;1883;48.202;16.310;2023-03-14T02:50:50;7.90;67.40
3736;DHT22;1883;48.202;16.310;2023-03-14T02:53:23;7.90;67.30
3736;DHT22;1883;48.202;16.310;2023-03-14T02:55:51;7.80;67.30
3736;DHT22;1883;48.202;16.310;2023-03-14T02:58:18;7.80;67.30
3736;DHT22;1883;48.202;16.310;2023-03-14T03:00:46;7.70;67.30
3736;DHT22;1883;48.202;16.310;2023-03-14T03:03:13;7.70;67.20
3736;DHT22;1883;48.202;16.310;2023-03-14T03:05:40;7.70;67.20
3736;DHT22;1883;48.202;16.310;2023-03-14T03:08:08;7.70;67.20
3736;DHT22;1883;48.202;16.310;2023-03-14T03:10:36;7.70;67.20
3736;DHT22;1883;48.202;16.310;2023-03-14T03:13:03;7.70;67.20
3736;DHT22;1883;48.202;16.310;2023-03-14T03:15:31;7.80;67.20
3736;DHT22;1883;48.202;16.310;2023-03-14T03:17:58;7.70;67.20
3736;DHT22;1883;48.202;16.310;2023-03-14T03:23:00;7.70;67.10
3736;DHT22;1883;48.202;16.310;2023-03-14T03:25:28;7.80;67.10
3736;DHT22;1883;48.202;16.310;2023-03-14T03:27:56;7.80;67.10
3736;DHT22;1883;48.202;16.310;2023-03-14T03:30:23;7.70;67.10
3736;DHT22;1883;48.202;16.310;2023-03-14T03:32:51;7.70;67.10
3736;DHT22;1883;48.202;16.310;2023-03-14T03:35:17;7.70;67.20
3736;DHT22;1883;48.202;16.310;2023-03-14T03:37:45;7.70;67.20
3736;DHT22;1883;48.202;16.310;2023-03-14T03:40:13;7.80;67.30
3736;DHT22;1883;48.202;16.310;2023-03-14T03:42:40;7.80;67.40
3736;DHT22;1883;48.202;16.310;2023-03-14T03:45:09;7.80;67.40
3736;DHT22;1883;48.202;16.310;2023-03-14T03:47:36;7.80;67.50
3736;DHT22;1883;48.202;16.310;2023-03-14T03:50:04;7.80;67.60
3736;DHT22;1883;48.202;16.310;2023-03-14T03:52:31;7.80;67.60
3736;DHT22;1883;48.202;16.310;2023-03-14T03:54:58;7.70;67.70
3736;DHT22;1883;48.202;16.310;2023-03-14T03:57:25;7.70;67.70
3736;DHT22;1883;48.202;16.310;2023-03-14T03:59:52;7.70;67.70
3736;DHT22;1883;48.202;16.310;2023-03-14T04:02:21;7.70;67.70
3736;DHT22;1883;48.202;16.310;2023-03-14T04:04:48;7.70;67.60
3736;DHT22;1883;48.202;16.310;2023-03-14T04:07:15;7.70;67.60
3736;DHT22;1883;48.202;16.310;2023-03-14T04:09:42;7.60;67.60
3736;DHT22;1883;48.202;16.310;2023-03-14T04:12:09;7.60;67.60
3736;DHT22;1883;48.202;16.310;2023-03-14T04:14:36;7.60;67.50
3736;DHT22;1883;48.202;16.310;2023-03-14T04:17:03;7.50;67.50
3736;DHT22;1883;48.202;16.310;2023-03-14T04:19:32;7.50;67.50
3736;DHT22;1883;48.202;16.310;2023-03-14T04:21:59;7.40;67.40
3736;DHT22;1883;48.202;16.310;2023-03-14T04:24:26;7.40;67.40
3736;DHT22;1883;48.202;16.310;2023-03-14T04:26:53;7.50;67.50
3736;DHT22;1883;48.202;16.310;2023-03-14T04:29:20;7.70;67.60
3736;DHT22;1883;48.202;16.310;2023-03-14T04:31:47;7.80;67.70
3736;DHT22;1883;48.202;16.310;2023-03-14T04:34:14;8.00;67.90
